createdAt,value
2022-10-09T00:01:25.767Z,95960.13
2022-10-09T00:04:11.861Z,95961.38
2022-10-09T00:06:57.959Z,95961.56
2022-10-09T00:09:43.829Z,95966.31
2022-10-09T00:12:29.821Z,95958.63
2022-10-09T00:15:16.140Z,95953.91
2022-10-09T00:18:02.233Z,95948.91
2022-10-09T00:20:48.265Z,95959.91
2022-10-09T00:23:34.299Z,95954.28
2022-10-09T00:26:20.327Z,95961.56
2022-10-09T00:29:06.635Z,95957.22
2022-10-09T00:31:52.632Z,95958.25
2022-10-09T00:34:38.591Z,95952.00
2022-10-09T00:37:24.707Z,95943.13
2022-10-09T00:40:10.845Z,95939.63
2022-10-09T00:42:58.266Z,95928.59
2022-10-09T00:45:49.407Z,95937.94
2022-10-09T00:48:35.501Z,95944.38
2022-10-09T00:51:21.277Z,95937.75
2022-10-09T00:54:09.286Z,95943.13
2022-10-09T00:56:55.602Z,95941.69
2022-10-09T00:59:41.722Z,95932.75
2022-10-09T01:02:31.690Z,95924.50
2022-10-09T01:05:19.238Z,95934.84
2022-10-09T01:08:16.327Z,95924.50
2022-10-09T01:11:22.184Z,95924.91
2022-10-09T01:14:17.680Z,95930.09
2022-10-09T01:17:15.456Z,95938.56
2022-10-09T01:20:17.874Z,95930.28
2022-10-09T01:23:16.965Z,95912.66
2022-10-09T01:26:34.240Z,95934.22
2022-10-09T01:29:22.722Z,95932.38
2022-10-09T01:32:15.972Z,95930.28
2022-10-09T01:35:03.874Z,95935.22
2022-10-09T01:37:53.882Z,95933.16
2022-10-09T01:40:45.337Z,95921.97
2022-10-09T01:43:34.070Z,95924.06
2022-10-09T01:46:33.465Z,95919.28
2022-10-09T01:49:54.575Z,95933.16
2022-10-09T01:52:50.779Z,95931.09
2022-10-09T01:55:53.933Z,95936.50
2022-10-09T01:59:00.314Z,95943.50
2022-10-09T02:01:48.749Z,95922.75
2022-10-09T02:04:37.992Z,95938.13
2022-10-09T02:07:26.015Z,95943.91
2022-10-09T02:10:20.611Z,95949.06
2022-10-09T02:13:09.485Z,95948.06
2022-10-09T02:16:18.457Z,95957.16
2022-10-09T02:19:18.969Z,95959.63
2022-10-09T02:22:20.432Z,95949.41
2022-10-09T02:25:14.086Z,95955.00
2022-10-09T02:28:06.292Z,95943.38
2022-10-09T02:31:04.056Z,95959.97
2022-10-09T02:33:59.501Z,95965.56
2022-10-09T02:36:48.130Z,95966.16
2022-10-09T02:39:39.116Z,95973.63
2022-10-09T02:42:31.000Z,95965.94
2022-10-09T02:45:21.996Z,95963.22
2022-10-09T02:48:13.600Z,95967.13
2022-10-09T02:51:04.630Z,95957.63
2022-10-09T02:53:56.951Z,95973.53
2022-10-09T02:56:45.779Z,95977.72
2022-10-09T02:59:33.510Z,95992.22
2022-10-09T03:02:24.829Z,95967.69
2022-10-09T03:05:15.184Z,95979.72
2022-10-09T03:08:03.024Z,95994.25
2022-10-09T03:10:51.005Z,95991.31
2022-10-09T03:13:40.494Z,95984.47
2022-10-09T03:16:33.985Z,95989.22
2022-10-09T03:19:21.100Z,95985.88
2022-10-09T03:22:12.085Z,95988.56
2022-10-09T03:25:02.547Z,95975.91
2022-10-09T03:27:50.295Z,95992.06
2022-10-09T03:30:42.702Z,95966.75
2022-10-09T03:33:30.660Z,95985.81
2022-10-09T03:36:18.577Z,95983.06
2022-10-09T03:39:08.773Z,95994.88
2022-10-09T03:41:59.362Z,95987.16
2022-10-09T03:44:46.753Z,95983.63
2022-10-09T03:47:34.577Z,95990.22
2022-10-09T03:50:22.543Z,95997.06
2022-10-09T03:53:14.766Z,95993.56
2022-10-09T03:56:04.561Z,95991.09
2022-10-09T03:58:52.590Z,95988.97
2022-10-09T04:01:40.378Z,96004.31
2022-10-09T04:04:28.403Z,96002.19
2022-10-09T04:07:16.696Z,96001.16
2022-10-09T04:10:04.528Z,95993.69
2022-10-09T04:12:52.119Z,95990.50
2022-10-09T04:15:40.455Z,95998.38
2022-10-09T04:18:32.052Z,96013.53
2022-10-09T04:21:20.579Z,96013.28
2022-10-09T04:24:09.092Z,95999.94
2022-10-09T04:26:57.752Z,96012.38
2022-10-09T04:29:45.989Z,96028.34
2022-10-09T04:32:34.169Z,96024.16
2022-10-09T04:35:27.443Z,96022.50
2022-10-09T04:38:14.873Z,96018.03
2022-10-09T04:41:07.750Z,96024.13
2022-10-09T04:43:57.956Z,96028.00
2022-10-09T04:46:45.559Z,96025.28
2022-10-09T04:49:33.519Z,96015.09
2022-10-09T04:52:20.875Z,96020.94
2022-10-09T04:55:09.480Z,96024.44
2022-10-09T04:58:04.051Z,96024.63
2022-10-09T05:00:51.893Z,96025.84
2022-10-09T05:03:40.442Z,96020.22
2022-10-09T05:06:27.247Z,96034.28
2022-10-09T05:09:14.175Z,96027.25
2022-10-09T05:12:02.302Z,96042.34
2022-10-09T05:14:53.336Z,96030.72
2022-10-09T05:17:40.898Z,96042.09
2022-10-09T05:20:37.056Z,96029.88
2022-10-09T05:23:28.565Z,96055.06
2022-10-09T05:26:20.093Z,96061.81
2022-10-09T05:29:07.380Z,96062.63
2022-10-09T05:31:54.822Z,96059.75
2022-10-09T05:34:45.794Z,96053.66
2022-10-09T05:37:39.047Z,96055.41
2022-10-09T05:40:29.217Z,96066.91
2022-10-09T05:43:29.663Z,96076.28
2022-10-09T05:46:25.167Z,96082.09
2022-10-09T06:02:53.921Z,96085.69
2022-10-09T06:05:53.776Z,96103.78
2022-10-09T06:08:43.273Z,96098.03
2022-10-09T06:11:35.550Z,96085.50
2022-10-09T06:14:27.539Z,96101.88
2022-10-09T06:17:14.344Z,96095.72
2022-10-09T06:20:01.499Z,96105.84
2022-10-09T06:22:48.324Z,96118.50
2022-10-09T06:25:35.826Z,96121.28
2022-10-09T06:28:29.065Z,96114.38
2022-10-09T06:31:27.740Z,96116.34
2022-10-09T06:34:20.499Z,96121.97
2022-10-09T06:37:28.261Z,96124.47
2022-10-09T06:40:23.793Z,96131.50
2022-10-09T06:43:16.118Z,96136.88
2022-10-09T06:46:06.645Z,96134.97
2022-10-09T06:49:03.333Z,96137.22
2022-10-09T06:51:53.538Z,96149.88
2022-10-09T06:54:50.367Z,96138.31
2022-10-09T06:57:37.255Z,96138.75
2022-10-09T07:00:23.145Z,96136.38
2022-10-09T07:03:08.931Z,96139.06
2022-10-09T07:05:56.981Z,96150.72
2022-10-09T07:08:48.458Z,96142.41
2022-10-09T07:11:40.222Z,96148.47
2022-10-09T07:14:26.582Z,96144.97
2022-10-09T07:17:12.639Z,96145.78
2022-10-09T07:19:58.832Z,96152.69
2022-10-09T07:22:44.921Z,96154.53
2022-10-09T07:25:30.757Z,96157.25
2022-10-09T07:28:16.826Z,96146.06
2022-10-09T07:31:04.341Z,96160.16
2022-10-09T07:33:51.497Z,96169.38
2022-10-09T07:36:37.852Z,96154.41
2022-10-09T07:39:23.675Z,96163.00
2022-10-09T07:42:09.517Z,96166.13
2022-10-09T07:44:55.568Z,96170.28
2022-10-09T07:47:41.347Z,96155.56
2022-10-09T07:50:27.334Z,96149.56
2022-10-09T07:53:13.323Z,96177.19
2022-10-09T07:55:59.268Z,96168.69
2022-10-09T07:58:51.934Z,96164.09
2022-10-09T08:01:39.196Z,96157.44
2022-10-09T08:04:25.257Z,96151.00
2022-10-09T08:07:11.239Z,96153.09
2022-10-09T08:09:57.271Z,96163.66
2022-10-09T08:12:43.169Z,96161.16
2022-10-09T08:15:29.164Z,96158.84
2022-10-09T08:18:15.400Z,96156.72
2022-10-09T08:21:03.840Z,96162.91
2022-10-09T08:23:54.140Z,96157.91
2022-10-09T08:26:44.352Z,96163.09
2022-10-09T08:29:30.697Z,96154.28
2022-10-09T08:32:16.823Z,96150.88
2022-10-09T08:35:03.408Z,96152.25
2022-10-09T08:37:49.661Z,96149.44
2022-10-09T08:40:58.303Z,96149.31
2022-10-09T08:43:47.578Z,96141.94
2022-10-09T08:46:46.819Z,96128.88
2022-10-09T08:50:02.091Z,96137.53
2022-10-09T08:53:25.770Z,96120.25
2022-10-09T08:56:14.595Z,96123.66
2022-10-09T08:59:02.168Z,96110.78
2022-10-09T09:01:52.878Z,96108.53
2022-10-09T09:04:38.916Z,96108.16
2022-10-09T09:07:24.955Z,96108.56
2022-10-09T09:10:28.001Z,96091.91
2022-10-09T09:13:29.327Z,96110.69
2022-10-09T09:16:25.020Z,96116.84
2022-10-09T09:19:37.515Z,96105.88
2022-10-09T09:22:27.274Z,96116.16
2022-10-09T09:25:24.628Z,96105.59
2022-10-09T09:28:35.062Z,96093.66
2022-10-09T09:31:28.592Z,96089.09
2022-10-09T09:34:39.581Z,96103.50
2022-10-09T09:37:25.938Z,96109.94
2022-10-09T09:40:36.856Z,96096.59
2022-10-09T09:43:24.663Z,96106.66
2022-10-09T09:46:40.889Z,96110.16
2022-10-09T09:49:29.969Z,96102.81
2022-10-09T09:52:16.182Z,96114.75
2022-10-09T09:55:02.492Z,96100.22
2022-10-09T09:57:49.129Z,96093.38
2022-10-09T10:00:35.894Z,96092.66
2022-10-09T10:03:24.718Z,96109.69
2022-10-09T10:06:44.168Z,96104.00
2022-10-09T10:09:31.839Z,96101.53
2022-10-09T10:12:18.605Z,96098.09
2022-10-09T10:15:05.063Z,96094.31
2022-10-09T10:18:14.320Z,96084.47
2022-10-09T10:21:08.764Z,96074.06
2022-10-09T10:24:03.711Z,96076.78
2022-10-09T10:26:55.694Z,96085.59
2022-10-09T10:29:44.330Z,96084.78
2022-10-09T10:32:46.944Z,96086.75
2022-10-09T10:35:34.315Z,96089.91
2022-10-09T10:38:30.484Z,96094.00
2022-10-09T10:41:37.824Z,96094.75
2022-10-09T10:44:40.218Z,96092.59
2022-10-09T10:47:30.953Z,96090.41
2022-10-09T10:50:17.602Z,96093.00
2022-10-09T10:53:11.470Z,96090.09
2022-10-09T10:56:04.943Z,96076.69
2022-10-09T10:59:21.139Z,96084.91
2022-10-09T11:02:10.085Z,96084.31
2022-10-09T11:05:01.899Z,96081.06
2022-10-09T11:08:03.453Z,96079.84
2022-10-09T11:11:07.990Z,96065.53
2022-10-09T11:14:14.555Z,96060.03
2022-10-09T11:17:31.973Z,96069.09
2022-10-09T11:20:42.805Z,96059.19
2022-10-09T11:23:55.371Z,96044.91
2022-10-09T11:27:29.714Z,96039.06
2022-10-09T11:30:17.574Z,96043.66
2022-10-09T11:33:31.364Z,96041.44
2022-10-09T11:36:26.982Z,96039.22
2022-10-09T11:39:18.216Z,96055.03
2022-10-09T11:42:05.377Z,96040.19
2022-10-09T11:45:14.443Z,96061.09
2022-10-09T11:48:25.018Z,96059.94
2022-10-09T11:51:29.754Z,96058.44
2022-10-09T11:54:17.922Z,96060.94
2022-10-09T11:57:06.427Z,96055.91
2022-10-09T12:00:04.581Z,96060.66
2022-10-09T12:02:59.036Z,96050.13
2022-10-09T12:05:47.469Z,96050.38
2022-10-09T12:08:33.704Z,96042.84
2022-10-09T12:11:20.310Z,96052.84
2022-10-09T12:14:08.599Z,96045.72
2022-10-09T12:16:54.889Z,96042.91
2022-10-09T12:19:42.070Z,96032.50
2022-10-09T12:22:35.901Z,96051.56
2022-10-09T12:25:30.979Z,96058.50
2022-10-09T12:28:30.169Z,96056.25
2022-10-09T12:31:21.985Z,96053.53
2022-10-09T12:34:24.449Z,96037.41
2022-10-09T12:37:12.596Z,96048.19
2022-10-09T12:40:14.408Z,96041.53
2022-10-09T12:43:07.031Z,96036.31
2022-10-09T12:45:54.452Z,96028.41
2022-10-09T12:48:42.461Z,96028.88
2022-10-09T12:51:32.453Z,96047.56
2022-10-09T12:54:18.693Z,96043.75
2022-10-09T12:57:04.854Z,96024.78
2022-10-09T12:59:51.310Z,96040.13
2022-10-09T13:02:37.813Z,96042.81
2022-10-09T13:05:24.062Z,96031.47
2022-10-09T13:08:26.355Z,96028.50
2022-10-09T13:11:18.176Z,96005.63
2022-10-09T13:14:04.906Z,95998.16
2022-10-09T13:16:50.826Z,96012.28
2022-10-09T13:19:37.211Z,95994.75
2022-10-09T13:22:25.542Z,95993.47
2022-10-09T13:25:11.509Z,95998.41
2022-10-09T13:27:57.907Z,95996.09
2022-10-09T13:30:44.212Z,96001.13
2022-10-09T13:33:29.934Z,95992.13
2022-10-09T13:36:17.174Z,95984.25
2022-10-09T13:39:03.521Z,95997.16
2022-10-09T13:41:52.990Z,95996.88
2022-10-09T13:44:39.126Z,95986.41
2022-10-09T13:47:25.202Z,95990.09
2022-10-09T13:50:14.105Z,95979.88
2022-10-09T13:53:00.302Z,95978.66
2022-10-09T13:55:46.147Z,95980.38
2022-10-09T13:58:31.937Z,95970.00
2022-10-09T14:01:17.932Z,95963.97
2022-10-09T14:04:03.989Z,95977.75
2022-10-09T14:06:50.231Z,95980.81
2022-10-09T14:09:36.906Z,95978.50
2022-10-09T14:12:23.233Z,95981.41
2022-10-09T14:15:09.682Z,95985.06
2022-10-09T14:17:55.679Z,95979.44
2022-10-09T14:20:41.637Z,95975.38
2022-10-09T14:23:27.566Z,95954.81
2022-10-09T14:26:13.673Z,95952.34
2022-10-09T14:29:01.873Z,95972.94
2022-10-09T14:31:51.075Z,95977.31
2022-10-09T14:34:36.924Z,95959.75
2022-10-09T14:37:40.917Z,95953.16
2022-10-09T14:40:27.863Z,95966.34
2022-10-09T14:43:13.971Z,95970.72
2022-10-09T14:46:12.161Z,95978.94
2022-10-09T14:48:59.023Z,95983.81
2022-10-09T14:51:45.216Z,95988.69
2022-10-09T14:54:31.345Z,95991.59
2022-10-09T14:57:17.324Z,95986.50
2022-10-09T15:00:05.159Z,95964.19
2022-10-09T15:02:51.113Z,95981.97
2022-10-09T15:05:37.302Z,95998.34
2022-10-09T15:08:23.252Z,95979.63
2022-10-09T15:11:10.605Z,95997.31
2022-10-09T15:13:56.551Z,95987.22
2022-10-09T15:16:42.397Z,95987.59
2022-10-09T15:19:28.325Z,95976.84
2022-10-09T15:22:14.280Z,95982.09
2022-10-09T15:25:00.330Z,95987.94
2022-10-09T15:27:46.603Z,95997.06
2022-10-09T15:30:34.239Z,95983.84
2022-10-09T15:33:22.303Z,95993.16
2022-10-09T15:36:08.283Z,95987.28
2022-10-09T15:38:54.391Z,95985.25
2022-10-09T15:41:42.224Z,95998.34
2022-10-09T15:44:28.274Z,95998.47
2022-10-09T15:47:16.789Z,95996.41
2022-10-09T15:50:03.802Z,95985.25
2022-10-09T15:52:49.984Z,96004.03
2022-10-09T15:55:39.550Z,96017.22
2022-10-09T15:58:25.625Z,96011.56
2022-10-09T16:01:14.946Z,96015.53
2022-10-09T16:04:00.920Z,96008.13
2022-10-09T16:06:46.861Z,96012.38
2022-10-09T16:09:34.323Z,96002.88
2022-10-09T16:12:20.282Z,96007.66
2022-10-09T16:15:06.646Z,96014.66
2022-10-09T16:17:52.620Z,96018.03
2022-10-09T16:20:40.424Z,96030.88
2022-10-09T16:23:26.815Z,96022.44
2022-10-09T16:26:15.878Z,96036.13
2022-10-09T16:29:02.063Z,96034.84
2022-10-09T16:31:47.975Z,96039.84
2022-10-09T16:34:34.040Z,96048.84
2022-10-09T16:37:19.939Z,96061.88
2022-10-09T16:40:06.445Z,96053.03
2022-10-09T16:42:52.556Z,96054.13
2022-10-09T16:45:39.432Z,96059.66
2022-10-09T16:48:25.423Z,96063.00
2022-10-09T16:51:14.180Z,96065.97
2022-10-09T16:54:01.919Z,96068.19
2022-10-09T16:56:47.914Z,96058.84
2022-10-09T16:59:33.994Z,96062.72
2022-10-09T17:02:20.139Z,96082.19
2022-10-09T17:05:07.424Z,96095.44
2022-10-09T17:07:54.580Z,96089.97
2022-10-09T17:10:42.276Z,96082.41
2022-10-09T17:13:28.379Z,96091.63
2022-10-09T17:16:18.714Z,96094.53
2022-10-09T17:19:05.383Z,96112.13
2022-10-09T17:21:51.660Z,96112.22
2022-10-09T17:24:37.807Z,96110.44
2022-10-09T17:27:24.229Z,96109.78
2022-10-09T17:30:13.122Z,96115.22
2022-10-09T17:32:59.426Z,96123.88
2022-10-09T17:35:45.597Z,96136.00
2022-10-09T17:38:31.503Z,96137.97
2022-10-09T17:41:19.373Z,96140.53
2022-10-09T17:44:05.845Z,96142.28
2022-10-09T17:46:51.810Z,96136.91
2022-10-09T17:49:38.027Z,96142.28
2022-10-09T17:52:23.958Z,96150.63
2022-10-09T17:55:09.934Z,96159.44
2022-10-09T17:57:56.199Z,96147.44
2022-10-09T18:00:42.483Z,96166.22
2022-10-09T18:03:28.608Z,96161.91
2022-10-09T18:06:18.088Z,96158.41
2022-10-09T18:09:04.603Z,96167.84
2022-10-09T18:11:50.825Z,96170.59
2022-10-09T18:14:36.770Z,96160.69
2022-10-09T18:17:22.667Z,96176.13
2022-10-09T18:20:09.042Z,96167.06
2022-10-09T18:22:55.329Z,96181.41
2022-10-09T18:25:44.888Z,96168.38
2022-10-09T18:28:30.706Z,96174.78
2022-10-09T18:31:19.435Z,96190.44
2022-10-09T18:34:06.265Z,96183.41
2022-10-09T18:36:52.602Z,96167.03
2022-10-09T18:39:38.808Z,96180.59
2022-10-09T18:42:25.094Z,96202.66
2022-10-09T18:45:13.295Z,96205.19
2022-10-09T18:48:00.844Z,96191.09
2022-10-09T18:50:47.341Z,96213.56
2022-10-09T18:53:36.001Z,96217.50
2022-10-09T18:56:22.848Z,96217.75
2022-10-09T18:59:12.232Z,96211.16
2022-10-09T19:01:58.388Z,96231.75
2022-10-09T19:04:44.474Z,96224.69
2022-10-09T19:07:30.374Z,96241.38
2022-10-09T19:10:16.551Z,96221.25
2022-10-09T19:13:02.631Z,96239.97
2022-10-09T19:15:56.683Z,96255.84
2022-10-09T19:18:42.834Z,96248.53
2022-10-09T19:21:28.805Z,96260.81
2022-10-09T19:24:14.981Z,96253.75
2022-10-09T19:27:04.144Z,96247.94
2022-10-09T19:29:50.167Z,96261.44
2022-10-09T19:32:36.129Z,96266.66
2022-10-09T19:35:22.479Z,96266.69
2022-10-09T19:38:08.462Z,96264.41
2022-10-09T19:40:54.541Z,96259.66
2022-10-09T19:43:41.402Z,96269.41
2022-10-09T19:46:27.716Z,96264.00
2022-10-09T19:49:14.094Z,96264.22
2022-10-09T19:52:00.350Z,96258.63
2022-10-09T19:54:46.259Z,96248.84
2022-10-09T19:57:32.195Z,96267.78
2022-10-09T20:00:18.204Z,96282.16
2022-10-09T20:03:04.145Z,96273.84
2022-10-09T20:05:50.217Z,96255.97
2022-10-09T20:08:37.638Z,96255.75
2022-10-09T20:11:23.816Z,96259.91
2022-10-09T20:14:10.997Z,96266.56
2022-10-09T20:16:56.898Z,96278.19
2022-10-09T20:19:45.780Z,96280.06
2022-10-09T20:22:31.805Z,96274.47
2022-10-09T20:25:18.081Z,96258.63
2022-10-09T20:28:04.367Z,96264.22
2022-10-09T20:30:58.158Z,96272.13
2022-10-09T20:33:45.413Z,96261.09
2022-10-09T20:36:35.460Z,96265.25
2022-10-09T20:39:21.973Z,96269.22
2022-10-09T20:42:08.181Z,96269.00
2022-10-09T20:44:54.470Z,96263.16
2022-10-09T20:47:40.622Z,96258.16
2022-10-09T20:50:26.689Z,96271.03
2022-10-09T20:53:12.665Z,96252.16
2022-10-09T20:56:08.594Z,96263.34
2022-10-09T20:58:55.762Z,96255.25
2022-10-09T21:01:41.775Z,96262.69
2022-10-09T21:04:27.746Z,96266.22
2022-10-09T21:07:13.724Z,96244.56
2022-10-09T21:09:59.579Z,96263.47
2022-10-09T21:12:45.580Z,96256.63
2022-10-09T21:15:31.798Z,96265.31
2022-10-09T21:18:18.900Z,96263.63
2022-10-09T21:21:16.359Z,96276.66
2022-10-09T21:24:02.736Z,96283.94
2022-10-09T21:26:48.921Z,96281.44
2022-10-09T21:29:35.290Z,96278.50
2022-10-09T21:32:21.178Z,96272.69
2022-10-09T21:35:07.455Z,96270.16
2022-10-09T21:37:53.795Z,96276.31
2022-10-09T21:40:40.081Z,96279.47
2022-10-09T21:43:26.414Z,96282.16
2022-10-09T21:46:12.250Z,96274.22
2022-10-09T21:48:58.306Z,96281.94
2022-10-09T21:51:44.438Z,96279.03
2022-10-09T21:54:30.336Z,96275.91
2022-10-09T21:57:16.244Z,96259.69
2022-10-09T22:00:02.105Z,96244.56
2022-10-09T22:02:50.798Z,96264.28
2022-10-09T22:05:39.782Z,96251.59
2022-10-09T22:08:26.242Z,96255.34
2022-10-09T22:11:12.581Z,96268.81
2022-10-09T22:13:58.629Z,96256.97
2022-10-09T22:16:44.867Z,96267.75
2022-10-09T22:19:31.753Z,96262.91
2022-10-09T22:22:18.222Z,96261.31
2022-10-09T22:25:04.436Z,96273.88
2022-10-09T22:27:50.332Z,96270.75
2022-10-09T22:30:36.435Z,96279.88
2022-10-09T22:33:22.659Z,96263.66
2022-10-09T22:36:12.630Z,96273.19
2022-10-09T22:39:00.769Z,96259.25
2022-10-09T22:41:46.793Z,96253.84
2022-10-09T22:44:32.661Z,96248.19
2022-10-09T22:47:18.549Z,96263.13
2022-10-09T22:50:04.788Z,96261.47
2022-10-09T22:52:51.287Z,96266.41
2022-10-09T22:55:40.695Z,96263.09
2022-10-09T22:58:27.110Z,96256.38
2022-10-09T23:01:20.697Z,96267.56
2022-10-09T23:04:09.872Z,96276.91
2022-10-09T23:06:58.105Z,96269.78
2022-10-09T23:09:44.262Z,96269.16
2022-10-09T23:12:30.215Z,96278.63
2022-10-09T23:15:16.213Z,96281.34
2022-10-09T23:18:03.314Z,96278.56
2022-10-09T23:20:49.382Z,96278.56
2022-10-09T23:23:35.451Z,96279.34
2022-10-09T23:26:23.968Z,96284.56
2022-10-09T23:29:14.252Z,96284.72
2022-10-09T23:32:00.391Z,96288.00
2022-10-09T23:34:46.435Z,96284.00
2022-10-09T23:37:32.689Z,96274.00
2022-10-09T23:40:18.853Z,96282.06
2022-10-09T23:43:04.918Z,96285.53
2022-10-09T23:45:51.464Z,96299.06
2022-10-09T23:48:37.532Z,96285.13
2022-10-09T23:51:25.046Z,96288.88
2022-10-09T23:54:11.589Z,96286.69
2022-10-09T23:56:57.392Z,96293.34
2022-10-09T23:59:43.441Z,96301.16
